ZBAA METAR and TAF | Updated Today

ZBAA METAR

Beijing Capital International Airport

Observation time: 37 min. ago

ZBAA 080630Z 11002MPS 050V150 CAVOK 05/M04 Q1030 NOSIG

Need help? Read our tutorial on how to read METARs or read the parsed version below.

Beijing Capital International Airport (ZBAA) METAR

  • Weather conditions on Wed, 08 Dec 2021 06:30:00 +0000 (37 min. ago):
  • Present conditions: Dry
  • Clouds: Clear skies
  • Visibility: Greater than 10 km
  • Wind: 110 degrees at 2 knots
  • Temperature: 5 celsius
  • Dew point: -4 celsius
  • Pressure: 1030 millibars
  • Remarks: None


Useful to know...

ZBAA TAF

Beijing Capital International Airport

TAF ZBAA 080302Z 0806/0906 15004MPS 3500 BR NSC TX06/0807Z TNM01/0821Z TEMPO 0817/0823 2400 -SN
Observation time: 4:05 hr. ago
Need help? Read our tutorial on how to read TAFs or read the parsed version below.

Parsed version of TAF for Beijing Capital International Airport (ZBAA)

  • From 08 December at 06:00 UTC, to day 09 of the month at 06:00 UTC
  • Clouds: No significant clouds are observed
  • Visibility: 3500 meters
  • Wind: 150 degrees at 4
  • Other: Mist
  • Expected to arise temporarily, from 08 December at 17:00 UTC, to day 08 of the month at 23:00 UTC
  • Visibility: 2400 meters
  • Other: Light snow

Airports near ZBAA

ZBAD Weather
Region: Beijing

Beijing Daxing International Airport

Not found in our database